createdAt,value
2017-01-17T00:00:07.123Z,0
2017-01-17T00:00:47.616Z,0
2017-01-17T00:01:28.119Z,0
2017-01-17T00:02:08.582Z,0
2017-01-17T00:02:49.095Z,0
2017-01-17T00:03:29.546Z,0
2017-01-17T00:04:10.032Z,0
2017-01-17T00:04:50.556Z,0
2017-01-17T00:05:31.031Z,0
2017-01-17T00:06:11.520Z,0
2017-01-17T00:06:52.058Z,0
2017-01-17T00:07:32.533Z,0
2017-01-17T00:08:13.028Z,0
2017-01-17T00:08:53.545Z,0
2017-01-17T00:09:34.026Z,0
2017-01-17T00:10:14.541Z,0
2017-01-17T00:10:55.049Z,0
2017-01-17T00:11:35.583Z,0
2017-01-17T00:12:16.048Z,0
2017-01-17T00:12:56.560Z,0
2017-01-17T00:13:37.069Z,0
2017-01-17T00:14:17.584Z,0
2017-01-17T00:14:58.057Z,0
2017-01-17T00:15:38.582Z,0
2017-01-17T00:16:19.114Z,0
2017-01-17T00:16:59.579Z,0
2017-01-17T00:17:40.084Z,0
2017-01-17T00:18:20.595Z,0
2017-01-17T00:19:01.149Z,0
2017-01-17T00:19:41.619Z,0
2017-01-17T00:20:22.158Z,0
2017-01-17T00:21:02.939Z,0
2017-01-17T00:21:43.477Z,0
2017-01-17T00:22:23.961Z,0
2017-01-17T00:24:52.513Z,0
2017-01-17T00:25:33.004Z,0
2017-01-17T00:26:13.529Z,0
2017-01-17T00:26:54.033Z,0
2017-01-17T00:27:34.531Z,0
2017-01-17T00:28:15.020Z,0
2017-01-17T00:28:55.580Z,0
2017-01-17T00:29:36.076Z,0
2017-01-17T00:30:16.558Z,0
2017-01-17T00:30:57.055Z,0
2017-01-17T00:31:37.559Z,0
2017-01-17T00:32:18.151Z,0
2017-01-17T00:32:58.622Z,0
2017-01-17T00:33:39.119Z,0
2017-01-17T00:34:19.616Z,0
2017-01-17T00:35:00.114Z,0
2017-01-17T00:35:40.593Z,0
2017-01-17T00:36:21.092Z,0
2017-01-17T00:37:01.558Z,0
2017-01-17T00:37:42.028Z,0
2017-01-17T00:38:22.508Z,0
2017-01-17T00:39:03.012Z,0
2017-01-17T00:39:43.543Z,0
2017-01-17T00:40:24.048Z,0
2017-01-17T00:41:04.690Z,0
2017-01-17T00:41:45.218Z,0
2017-01-17T00:42:25.731Z,0
2017-01-17T00:43:06.264Z,0
2017-01-17T00:43:46.770Z,0
2017-01-17T00:44:27.270Z,0
2017-01-17T00:45:07.806Z,0
2017-01-17T00:45:48.331Z,0
2017-01-17T00:46:28.857Z,0
2017-01-17T00:47:09.336Z,0
2017-01-17T00:47:49.835Z,0
2017-01-17T00:48:30.334Z,0
2017-01-17T00:49:10.855Z,0
2017-01-17T00:49:51.329Z,0
2017-01-17T00:50:31.819Z,0
2017-01-17T00:51:12.377Z,0
2017-01-17T00:51:52.857Z,0
2017-01-17T00:52:33.352Z,0
2017-01-17T00:53:13.886Z,0
2017-01-17T00:53:54.362Z,0
2017-01-17T00:54:34.847Z,0
2017-01-17T00:55:15.488Z,0
2017-01-17T00:55:55.977Z,0
2017-01-17T00:56:36.521Z,0
2017-01-17T00:57:17.033Z,0
2017-01-17T00:57:57.456Z,0
2017-01-17T00:58:37.946Z,0
2017-01-17T00:59:18.430Z,0
2017-01-17T00:59:58.910Z,0
2017-01-17T01:00:39.413Z,0
2017-01-17T01:01:19.885Z,0
2017-01-17T01:02:00.339Z,0
2017-01-17T01:02:40.831Z,0
2017-01-17T01:03:21.293Z,0
2017-01-17T01:04:01.749Z,0
2017-01-17T01:04:42.403Z,0
2017-01-17T01:05:23.120Z,0
2017-01-17T01:06:03.600Z,0
2017-01-17T01:06:44.289Z,0
2017-01-17T01:07:24.869Z,0
2017-01-17T01:08:05.331Z,0
2017-01-17T01:08:45.792Z,0
2017-01-17T01:09:26.251Z,0
2017-01-17T01:10:06.851Z,0
2017-01-17T01:10:47.334Z,0
2017-01-17T01:11:27.825Z,0
2017-01-17T01:15:28.887Z,0
2017-01-17T01:16:09.386Z,0
2017-01-17T01:16:49.877Z,0
2017-01-17T01:17:30.384Z,0
2017-01-17T01:18:10.897Z,0
2017-01-17T01:18:51.431Z,0
2017-01-17T01:19:31.922Z,0
2017-01-17T01:20:12.386Z,0
2017-01-17T01:20:52.876Z,0
2017-01-17T01:21:33.328Z,0
2017-01-17T01:22:13.908Z,0
2017-01-17T01:22:54.327Z,0
2017-01-17T01:23:34.858Z,0
2017-01-17T01:24:15.373Z,0
2017-01-17T01:24:55.772Z,0
2017-01-17T01:25:36.228Z,0
2017-01-17T01:26:16.768Z,0
2017-01-17T01:26:57.202Z,0
2017-01-17T01:27:37.725Z,0
2017-01-17T01:28:18.249Z,0
2017-01-17T01:28:58.711Z,0
2017-01-17T01:29:39.280Z,0
2017-01-17T01:30:19.808Z,0
2017-01-17T01:31:00.315Z,0
2017-01-17T01:31:40.765Z,0
2017-01-17T01:32:21.288Z,0
2017-01-17T01:33:01.749Z,0
2017-01-17T01:33:42.283Z,0
2017-01-17T01:34:22.737Z,0
2017-01-17T01:35:03.182Z,0
2017-01-17T01:35:43.703Z,0
2017-01-17T01:36:24.182Z,0
2017-01-17T01:37:04.726Z,0
2017-01-17T01:37:45.232Z,0
2017-01-17T01:38:25.713Z,0
2017-01-17T01:39:06.233Z,0
2017-01-17T01:39:46.694Z,0
2017-01-17T01:40:27.215Z,0
2017-01-17T01:41:07.710Z,0
2017-01-17T01:41:48.210Z,0
2017-01-17T01:42:28.822Z,0
2017-01-17T01:43:09.250Z,0
2017-01-17T01:43:49.804Z,0
2017-01-17T01:44:30.473Z,0
2017-01-17T01:45:10.715Z,0
2017-01-17T01:45:51.229Z,0
2017-01-17T01:46:31.686Z,0
2017-01-17T01:47:12.198Z,0
2017-01-17T01:47:52.753Z,0
2017-01-17T01:48:33.252Z,0
2017-01-17T01:49:13.773Z,0
2017-01-17T01:49:54.292Z,0
2017-01-17T01:50:34.804Z,0
2017-01-17T01:51:15.235Z,0
2017-01-17T01:51:55.748Z,0
2017-01-17T01:52:36.236Z,0
2017-01-17T01:53:16.751Z,0
2017-01-17T01:53:57.231Z,0
2017-01-17T01:54:37.723Z,0
2017-01-17T01:55:18.239Z,0
2017-01-17T01:55:58.727Z,0
2017-01-17T01:56:39.249Z,0
2017-01-17T01:57:19.743Z,0
2017-01-17T01:58:00.231Z,0
2017-01-17T01:58:40.777Z,0
2017-01-17T01:59:21.218Z,0
2017-01-17T02:00:01.763Z,0
2017-01-17T02:00:42.199Z,0
2017-01-17T02:01:22.790Z,0
2017-01-17T02:02:03.262Z,0
2017-01-17T02:02:43.761Z,0
2017-01-17T02:03:24.222Z,0
2017-01-17T02:04:04.758Z,0
2017-01-17T02:04:45.233Z,0
2017-01-17T02:05:25.743Z,0
2017-01-17T02:06:06.231Z,0
2017-01-17T02:06:46.748Z,0
2017-01-17T02:07:27.258Z,0
2017-01-17T02:08:07.773Z,0
2017-01-17T02:08:48.297Z,0
2017-01-17T02:09:28.729Z,0
2017-01-17T02:10:09.268Z,0
2017-01-17T02:10:49.753Z,0
2017-01-17T02:11:30.273Z,0
2017-01-17T02:12:10.762Z,0
2017-01-17T02:12:51.280Z,0
2017-01-17T02:15:24.807Z,0
2017-01-17T02:16:05.350Z,0
2017-01-17T02:16:45.860Z,0
2017-01-17T02:17:26.367Z,0
2017-01-17T02:18:06.863Z,0
2017-01-17T02:18:47.362Z,0
2017-01-17T02:19:27.896Z,0
2017-01-17T02:20:08.367Z,0
2017-01-17T02:20:48.871Z,0
2017-01-17T02:21:29.341Z,0
2017-01-17T02:22:09.847Z,0
2017-01-17T02:22:50.304Z,0
2017-01-17T02:23:30.807Z,0
2017-01-17T02:24:11.325Z,0
2017-01-17T02:24:51.804Z,0
2017-01-17T02:25:32.335Z,0
2017-01-17T02:26:12.812Z,0
2017-01-17T02:26:53.300Z,0
2017-01-17T02:27:33.802Z,0
2017-01-17T02:28:14.382Z,0
2017-01-17T02:28:54.892Z,0
2017-01-17T02:29:35.356Z,0
2017-01-17T02:30:15.861Z,0
2017-01-17T02:30:56.358Z,0
2017-01-17T02:31:36.845Z,0
2017-01-17T02:32:17.383Z,0
2017-01-17T02:32:57.872Z,0
2017-01-17T02:33:38.381Z,0
2017-01-17T02:34:18.886Z,0
2017-01-17T02:34:59.365Z,0
2017-01-17T02:35:39.857Z,0
2017-01-17T02:36:20.360Z,0
2017-01-17T02:37:00.874Z,0
2017-01-17T02:37:41.359Z,0
2017-01-17T02:38:21.864Z,0
2017-01-17T02:39:02.338Z,0
2017-01-17T02:39:42.847Z,0
2017-01-17T02:40:23.364Z,0
2017-01-17T02:41:03.866Z,0
2017-01-17T02:41:44.368Z,0
2017-01-17T02:42:24.863Z,0
2017-01-17T02:43:05.371Z,0
2017-01-17T02:43:45.898Z,0
2017-01-17T02:44:26.343Z,0
2017-01-17T02:45:06.850Z,0
2017-01-17T02:45:47.341Z,0
2017-01-17T02:46:27.812Z,0
2017-01-17T02:47:08.323Z,0
2017-01-17T02:47:48.889Z,0
2017-01-17T02:48:29.432Z,0
2017-01-17T02:49:09.904Z,0
2017-01-17T02:49:50.402Z,0
2017-01-17T02:50:30.900Z,0
2017-01-17T02:51:11.527Z,0
2017-01-17T02:51:51.982Z,0
2017-01-17T02:52:32.513Z,0
2017-01-17T02:53:13.023Z,0
2017-01-17T02:53:53.475Z,0
2017-01-17T02:54:34.007Z,0
2017-01-17T02:55:14.478Z,0
2017-01-17T02:55:54.956Z,0
2017-01-17T02:56:35.479Z,0
2017-01-17T02:57:15.960Z,0
2017-01-17T02:57:56.481Z,0
2017-01-17T02:58:36.952Z,0
2017-01-17T02:59:17.441Z,0
2017-01-17T02:59:57.951Z,0
2017-01-17T03:00:38.534Z,0
2017-01-17T03:01:18.958Z,0
2017-01-17T03:01:59.499Z,0
2017-01-17T03:02:39.985Z,0
2017-01-17T03:03:20.507Z,0
2017-01-17T03:04:01.002Z,0
2017-01-17T03:04:41.507Z,0
2017-01-17T03:05:21.999Z,0
2017-01-17T03:07:50.464Z,0
2017-01-17T03:08:30.951Z,0
2017-01-17T03:09:11.441Z,0
2017-01-17T03:09:51.982Z,0
2017-01-17T03:10:32.457Z,0
2017-01-17T03:11:12.966Z,0
2017-01-17T03:11:53.473Z,0
2017-01-17T03:12:33.985Z,0
2017-01-17T03:13:14.473Z,0
2017-01-17T03:13:54.972Z,0
2017-01-17T03:14:35.479Z,0
2017-01-17T03:15:15.980Z,0
2017-01-17T03:15:56.515Z,0
2017-01-17T03:16:37.006Z,0
2017-01-17T03:17:17.507Z,0
2017-01-17T03:17:58.006Z,0
2017-01-17T03:18:38.504Z,0
2017-01-17T03:19:18.980Z,0
2017-01-17T03:19:59.459Z,0
2017-01-17T03:20:39.927Z,0
2017-01-17T03:21:20.416Z,0
2017-01-17T03:22:00.937Z,0
2017-01-17T03:22:41.432Z,0
2017-01-17T03:23:21.942Z,0
2017-01-17T03:24:02.395Z,0
2017-01-17T03:24:42.891Z,0
2017-01-17T03:25:23.408Z,0
2017-01-17T03:26:03.945Z,0
2017-01-17T03:26:44.399Z,0
2017-01-17T03:27:24.918Z,0
2017-01-17T03:28:05.389Z,0
2017-01-17T03:28:45.878Z,0
2017-01-17T03:29:26.395Z,0
2017-01-17T03:30:06.939Z,0
2017-01-17T03:30:47.386Z,0
2017-01-17T03:31:27.912Z,0
2017-01-17T03:32:08.370Z,0
2017-01-17T03:32:48.898Z,0
2017-01-17T03:33:29.412Z,0
2017-01-17T03:34:09.856Z,0
2017-01-17T03:34:50.337Z,0
2017-01-17T03:35:30.873Z,0
2017-01-17T03:36:11.361Z,0
2017-01-17T03:36:51.880Z,0
2017-01-17T03:37:32.373Z,0
2017-01-17T03:38:12.922Z,0
2017-01-17T03:38:53.436Z,0
2017-01-17T03:39:33.909Z,0
2017-01-17T03:40:14.407Z,0
2017-01-17T03:40:54.937Z,0
2017-01-17T03:41:35.447Z,0
2017-01-17T03:42:15.954Z,0
2017-01-17T03:42:56.457Z,0
2017-01-17T03:43:36.953Z,0
2017-01-17T03:44:17.470Z,0
2017-01-17T03:44:57.962Z,0
2017-01-17T03:45:38.509Z,0
2017-01-17T03:46:18.946Z,0
2017-01-17T03:46:59.433Z,0
2017-01-17T03:47:39.947Z,0
2017-01-17T03:48:20.447Z,0
2017-01-17T03:49:00.942Z,0
2017-01-17T03:49:41.406Z,0
2017-01-17T03:50:21.943Z,0
2017-01-17T03:51:02.407Z,0
2017-01-17T03:51:42.908Z,0
2017-01-17T03:52:23.409Z,0
2017-01-17T03:53:03.986Z,0
2017-01-17T03:53:44.428Z,0
2017-01-17T03:54:24.900Z,0
2017-01-17T03:55:05.399Z,0
2017-01-17T03:55:45.907Z,0
2017-01-17T03:56:26.371Z,0
2017-01-17T03:57:06.868Z,0
2017-01-17T03:57:47.420Z,0
2017-01-17T03:58:27.907Z,0
2017-01-17T03:59:08.443Z,0
2017-01-17T03:59:48.897Z,0
2017-01-17T04:00:29.403Z,0
2017-01-17T04:01:09.913Z,0
2017-01-17T04:01:50.395Z,0
2017-01-17T04:02:30.910Z,0
2017-01-17T04:03:11.454Z,0
2017-01-17T04:05:29.792Z,0
2017-01-17T04:06:10.288Z,0
2017-01-17T04:06:50.798Z,0
2017-01-17T04:07:31.362Z,0
2017-01-17T04:08:11.817Z,0
2017-01-17T04:08:52.325Z,0
2017-01-17T04:09:32.781Z,0
2017-01-17T04:10:13.264Z,0
2017-01-17T04:10:53.778Z,0
2017-01-17T04:11:34.240Z,0
2017-01-17T04:12:14.768Z,0
2017-01-17T04:12:55.243Z,0
2017-01-17T04:13:35.745Z,0
2017-01-17T04:14:16.259Z,0
2017-01-17T04:14:56.853Z,0
2017-01-17T04:15:37.370Z,0
2017-01-17T04:16:17.888Z,0
2017-01-17T04:16:58.364Z,0
2017-01-17T04:17:38.874Z,0
2017-01-17T04:18:19.373Z,0
2017-01-17T04:18:59.873Z,0
2017-01-17T04:19:40.343Z,0
2017-01-17T04:20:20.839Z,0
2017-01-17T04:21:01.338Z,0
2017-01-17T04:21:41.898Z,0
2017-01-17T04:22:22.410Z,0
2017-01-17T04:23:02.925Z,0
2017-01-17T04:23:43.401Z,0
2017-01-17T04:24:23.909Z,0
2017-01-17T04:25:04.431Z,0
2017-01-17T04:25:44.896Z,0
2017-01-17T04:26:25.414Z,0
2017-01-17T04:27:05.911Z,0
2017-01-17T04:27:46.454Z,0
2017-01-17T04:28:26.902Z,0
2017-01-17T04:29:07.393Z,0
2017-01-17T04:29:47.927Z,0
2017-01-17T04:30:28.393Z,0
2017-01-17T04:31:08.918Z,0
2017-01-17T04:31:49.415Z,0
2017-01-17T04:32:29.913Z,0
2017-01-17T04:33:10.439Z,0
2017-01-17T04:33:50.908Z,0
2017-01-17T04:34:31.430Z,0
2017-01-17T04:35:11.937Z,0
2017-01-17T04:35:52.385Z,0
2017-01-17T04:36:32.900Z,0
2017-01-17T04:37:13.387Z,0
2017-01-17T04:37:53.889Z,0
2017-01-17T04:38:34.449Z,0
2017-01-17T04:39:14.897Z,0
2017-01-17T04:39:55.401Z,0
2017-01-17T04:40:35.915Z,0
2017-01-17T04:41:16.425Z,0
2017-01-17T04:41:56.973Z,0
2017-01-17T04:42:37.476Z,0
2017-01-17T04:43:17.986Z,0
2017-01-17T04:43:58.544Z,0
2017-01-17T04:44:39.086Z,0
2017-01-17T04:45:19.523Z,0
2017-01-17T04:46:00.028Z,0
2017-01-17T04:46:40.507Z,0
2017-01-17T04:47:21.011Z,0
2017-01-17T04:48:01.510Z,0
2017-01-17T04:48:42.040Z,0
2017-01-17T04:49:22.486Z,0
2017-01-17T04:50:02.995Z,0
2017-01-17T04:50:43.497Z,0
2017-01-17T04:51:24.005Z,0
2017-01-17T04:52:04.505Z,0
2017-01-17T04:52:44.989Z,0
2017-01-17T04:53:25.474Z,0
2017-01-17T04:54:05.995Z,0
2017-01-17T04:54:46.488Z,0
2017-01-17T04:55:26.975Z,0
2017-01-17T04:56:07.488Z,0
2017-01-17T04:56:48.008Z,0
2017-01-17T04:57:28.505Z,0
2017-01-17T04:58:09.003Z,0
2017-01-17T04:58:49.496Z,0
2017-01-17T04:59:29.979Z,0
2017-01-17T05:00:10.498Z,0
2017-01-17T05:00:51.002Z,0
2017-01-17T05:01:31.528Z,0
2017-01-17T05:02:12.061Z,0
2017-01-17T05:02:52.557Z,0
2017-01-17T05:03:33.098Z,0
2017-01-17T05:04:13.565Z,0
2017-01-17T05:04:54.069Z,0
2017-01-17T05:05:34.604Z,0
2017-01-17T05:06:15.091Z,0
2017-01-17T05:06:55.557Z,0
2017-01-17T05:07:36.055Z,0
2017-01-17T05:08:16.526Z,0
2017-01-17T05:08:57.010Z,0
2017-01-17T05:09:37.531Z,0
2017-01-17T05:10:18.050Z,0
2017-01-17T05:10:58.520Z,0
2017-01-17T05:11:39.026Z,0
2017-01-17T05:12:19.669Z,0
2017-01-17T05:13:00.058Z,0
2017-01-17T05:13:40.581Z,0
2017-01-17T05:14:21.087Z,0
2017-01-17T05:15:01.607Z,0
2017-01-17T05:15:42.127Z,0
2017-01-17T05:16:22.628Z,0
2017-01-17T05:17:03.138Z,0
2017-01-17T05:17:43.650Z,0
2017-01-17T05:18:24.149Z,0
2017-01-17T05:19:04.652Z,0
2017-01-17T05:19:45.141Z,0
2017-01-17T05:20:25.665Z,0
2017-01-17T05:21:06.165Z,0
2017-01-17T05:21:46.670Z,0
2017-01-17T05:22:27.148Z,0
2017-01-17T05:23:07.645Z,0
2017-01-17T05:23:48.185Z,0
2017-01-17T05:24:28.613Z,0
2017-01-17T05:25:09.122Z,0
2017-01-17T05:25:49.623Z,0
2017-01-17T05:26:30.111Z,0
2017-01-17T05:27:10.623Z,0
2017-01-17T05:27:51.186Z,0
2017-01-17T05:28:31.621Z,0
2017-01-17T05:29:12.142Z,0
2017-01-17T05:29:52.666Z,0
2017-01-17T05:30:33.178Z,0
2017-01-17T05:31:13.644Z,0
2017-01-17T05:31:54.109Z,0
2017-01-17T05:32:34.631Z,0
2017-01-17T05:33:15.263Z,0
2017-01-17T05:33:55.712Z,0
2017-01-17T05:34:36.271Z,0
2017-01-17T05:35:16.706Z,0
2017-01-17T05:35:57.188Z,0
2017-01-17T05:36:37.692Z,0
2017-01-17T05:37:18.190Z,0
2017-01-17T05:37:58.692Z,0
2017-01-17T05:38:39.159Z,0
2017-01-17T05:39:19.658Z,0
2017-01-17T05:40:00.165Z,0
2017-01-17T05:40:40.681Z,0
2017-01-17T05:41:21.244Z,0
2017-01-17T05:42:01.720Z,0
2017-01-17T05:42:42.160Z,0
2017-01-17T05:43:22.717Z,0
2017-01-17T05:44:03.184Z,0
2017-01-17T05:44:43.677Z,0
2017-01-17T05:45:24.175Z,0
2017-01-17T05:46:04.655Z,0
2017-01-17T05:46:45.125Z,0
2017-01-17T05:47:25.587Z,0
2017-01-17T05:48:06.098Z,0
2017-01-17T05:48:46.616Z,0
2017-01-17T05:49:27.095Z,0
2017-01-17T05:50:07.685Z,0
2017-01-17T05:50:48.080Z,0
2017-01-17T05:51:28.569Z,0
2017-01-17T05:52:09.065Z,0
2017-01-17T05:52:49.575Z,0
2017-01-17T05:53:30.081Z,0
2017-01-17T05:54:10.588Z,0
2017-01-17T05:54:51.082Z,0
2017-01-17T05:55:31.570Z,0
2017-01-17T05:56:12.173Z,0
2017-01-17T05:56:52.598Z,0
2017-01-17T05:57:33.391Z,0
2017-01-17T05:58:13.841Z,0
2017-01-17T05:58:54.352Z,0
2017-01-17T05:59:34.876Z,0
2017-01-17T06:00:15.287Z,0
2017-01-17T06:00:55.793Z,0
2017-01-17T06:01:36.314Z,0
2017-01-17T06:02:16.743Z,0
2017-01-17T06:02:57.229Z,0
2017-01-17T06:03:37.728Z,0
2017-01-17T06:04:18.231Z,0
2017-01-17T06:04:58.761Z,0
2017-01-17T06:05:39.228Z,0
2017-01-17T06:06:19.727Z,0
2017-01-17T06:07:00.242Z,0
2017-01-17T06:07:40.736Z,0
2017-01-17T06:08:21.252Z,0
2017-01-17T06:09:01.744Z,0
2017-01-17T06:09:42.244Z,0
2017-01-17T06:10:22.760Z,0
2017-01-17T06:11:03.282Z,0
2017-01-17T06:11:43.787Z,0
2017-01-17T06:12:24.265Z,0
2017-01-17T06:13:04.774Z,0
2017-01-17T06:13:45.266Z,0
2017-01-17T06:14:25.796Z,0
2017-01-17T06:15:06.290Z,0
2017-01-17T06:15:46.744Z,0
2017-01-17T06:16:27.225Z,0
2017-01-17T06:17:07.788Z,0
2017-01-17T06:17:48.339Z,0
2017-01-17T06:18:28.834Z,0
2017-01-17T06:19:09.246Z,0
2017-01-17T06:19:49.775Z,0
2017-01-17T06:20:30.313Z,0
2017-01-17T06:21:10.714Z,0
2017-01-17T06:21:51.182Z,0
2017-01-17T06:22:31.646Z,0
2017-01-17T06:24:45.218Z,0
2017-01-17T06:25:25.715Z,0
2017-01-17T06:26:06.204Z,0
2017-01-17T06:26:46.743Z,0
2017-01-17T06:27:27.202Z,0
2017-01-17T06:28:07.726Z,0
2017-01-17T06:28:48.179Z,0
2017-01-17T06:29:28.735Z,0
2017-01-17T06:30:09.398Z,0
2017-01-17T06:30:49.851Z,0
2017-01-17T06:31:30.326Z,0
2017-01-17T06:32:10.874Z,0
2017-01-17T06:32:51.470Z,0
2017-01-17T06:33:31.952Z,0
2017-01-17T06:34:12.373Z,0
2017-01-17T06:34:52.843Z,0
2017-01-17T06:35:33.380Z,0
2017-01-17T06:36:13.923Z,0
2017-01-17T06:38:45.092Z,0
2017-01-17T06:39:25.760Z,0
2017-01-17T06:40:06.105Z,0
2017-01-17T06:40:46.556Z,0
2017-01-17T06:41:27.019Z,0
2017-01-17T06:42:08.095Z,0
2017-01-17T06:42:48.595Z,0
2017-01-17T06:43:29.123Z,0
2017-01-17T06:44:09.660Z,0
2017-01-17T06:44:50.153Z,0
2017-01-17T06:45:30.646Z,0
2017-01-17T06:46:11.239Z,0
2017-01-17T06:46:51.785Z,0
2017-01-17T06:47:32.259Z,0
2017-01-17T06:48:12.764Z,0
2017-01-17T06:48:53.279Z,0
2017-01-17T06:49:33.748Z,0
2017-01-17T06:50:14.557Z,0
2017-01-17T06:50:54.922Z,0
2017-01-17T06:51:35.423Z,0
2017-01-17T06:52:15.905Z,0
2017-01-17T06:52:56.369Z,0
2017-01-17T06:53:37.065Z,0
2017-01-17T06:55:50.619Z,0
2017-01-17T06:56:31.161Z,0
2017-01-17T06:57:11.665Z,0
2017-01-17T06:57:52.563Z,0
2017-01-17T06:58:32.704Z,0
2017-01-17T06:59:13.317Z,0
2017-01-17T06:59:54.390Z,0
2017-01-17T07:00:40.588Z,0
2017-01-17T07:01:21.120Z,0
2017-01-17T07:02:01.527Z,0
2017-01-17T07:02:42.222Z,0
2017-01-17T07:05:03.561Z,0
2017-01-17T07:05:44.093Z,0
2017-01-17T07:06:24.601Z,0
2017-01-17T07:07:05.051Z,0
2017-01-17T07:07:45.600Z,0
2017-01-17T07:08:26.176Z,0
2017-01-17T07:09:06.829Z,0
2017-01-17T07:09:47.440Z,0
2017-01-17T07:10:27.961Z,0
2017-01-17T07:11:08.427Z,0
2017-01-17T07:11:48.856Z,0
2017-01-17T07:12:29.366Z,0
2017-01-17T07:13:09.788Z,0
2017-01-17T07:13:50.667Z,0
2017-01-17T07:14:31.166Z,0
2017-01-17T07:15:11.857Z,0
2017-01-17T07:15:52.792Z,0
2017-01-17T07:16:33.358Z,0
2017-01-17T07:17:13.781Z,0
2017-01-17T07:17:54.267Z,0
2017-01-17T07:18:34.813Z,0
2017-01-17T07:19:15.755Z,0
2017-01-17T07:23:29.060Z,0
2017-01-17T07:24:09.650Z,0
2017-01-17T07:24:50.183Z,0
2017-01-17T07:25:30.685Z,0
2017-01-17T07:27:59.160Z,5
2017-01-17T07:28:39.608Z,5
2017-01-17T07:29:20.264Z,5
2017-01-17T07:30:00.730Z,5
2017-01-17T07:30:41.239Z,5
2017-01-17T07:31:22.571Z,5
2017-01-17T07:32:02.978Z,5
2017-01-17T07:32:43.596Z,5
2017-01-17T07:33:24.126Z,5
2017-01-17T07:34:04.652Z,5
2017-01-17T07:34:45.151Z,5
2017-01-17T07:35:25.671Z,5
2017-01-17T07:36:06.203Z,5
2017-01-17T07:36:46.931Z,5
2017-01-17T07:37:27.410Z,5
2017-01-17T07:38:07.901Z,5
2017-01-17T07:38:48.835Z,5
2017-01-17T07:39:29.195Z,5
2017-01-17T07:40:09.693Z,5
2017-01-17T07:40:50.202Z,5
2017-01-17T07:41:30.724Z,5
2017-01-17T07:42:11.240Z,5
2017-01-17T07:42:51.752Z,5
2017-01-17T07:43:32.261Z,5
2017-01-17T07:44:12.769Z,5
2017-01-17T07:44:53.275Z,5
2017-01-17T07:45:33.791Z,5
2017-01-17T07:46:14.309Z,10
2017-01-17T07:46:54.818Z,10
2017-01-17T07:47:35.341Z,10
2017-01-17T07:48:15.856Z,10
2017-01-17T07:48:56.371Z,10
2017-01-17T07:49:36.988Z,10
2017-01-17T07:50:17.524Z,10
2017-01-17T07:50:58.038Z,10
2017-01-17T07:51:38.584Z,10
2017-01-17T07:52:19.120Z,10
2017-01-17T07:52:59.657Z,10
2017-01-17T07:53:40.160Z,10
2017-01-17T07:54:20.680Z,10
2017-01-17T07:55:01.227Z,10
2017-01-17T07:55:41.744Z,10
2017-01-17T07:56:22.287Z,10
2017-01-17T07:57:02.829Z,10
2017-01-17T07:57:43.326Z,10
2017-01-17T07:58:23.815Z,10
2017-01-17T07:59:04.353Z,10
2017-01-17T07:59:44.870Z,10
2017-01-17T08:00:25.398Z,10
2017-01-17T08:01:05.907Z,10
2017-01-17T08:01:46.422Z,10
2017-01-17T08:02:26.943Z,10
2017-01-17T08:03:07.462Z,15
2017-01-17T08:03:47.982Z,15
2017-01-17T08:04:28.504Z,15
2017-01-17T08:05:09.060Z,15
2017-01-17T08:05:49.577Z,15
2017-01-17T08:06:30.103Z,15
2017-01-17T08:07:10.637Z,15
2017-01-17T08:07:51.131Z,15
2017-01-17T08:08:31.649Z,15
2017-01-17T08:09:12.187Z,15
2017-01-17T08:09:52.719Z,15
2017-01-17T08:10:33.236Z,15
2017-01-17T08:11:13.759Z,15
2017-01-17T08:11:54.263Z,20
2017-01-17T08:12:34.788Z,20
2017-01-17T08:13:15.308Z,20
2017-01-17T08:13:55.825Z,20
2017-01-17T08:14:36.329Z,20
2017-01-17T08:15:16.938Z,20
2017-01-17T08:15:57.412Z,20
2017-01-17T08:16:37.930Z,20
2017-01-17T08:17:18.444Z,20
2017-01-17T08:17:58.953Z,25
2017-01-17T08:18:39.455Z,25
2017-01-17T08:19:19.969Z,25
2017-01-17T08:20:00.481Z,25
2017-01-17T08:20:41.003Z,25
2017-01-17T08:21:21.506Z,30
2017-01-17T08:22:02.019Z,30
2017-01-17T08:22:42.537Z,35
2017-01-17T08:23:23.058Z,35
2017-01-17T08:24:03.604Z,35
2017-01-17T08:24:44.149Z,35
2017-01-17T08:25:24.655Z,40
2017-01-17T08:26:05.182Z,40
2017-01-17T08:26:45.696Z,45
2017-01-17T08:27:26.197Z,45
2017-01-17T08:28:06.743Z,45
2017-01-17T08:28:47.261Z,45
2017-01-17T08:29:27.780Z,45
2017-01-17T08:30:08.301Z,45
2017-01-17T08:30:48.808Z,45
2017-01-17T08:31:29.305Z,45
2017-01-17T08:32:09.841Z,40
2017-01-17T08:34:28.175Z,45
2017-01-17T08:35:08.689Z,45
2017-01-17T08:35:49.215Z,45
2017-01-17T08:36:29.719Z,45
2017-01-17T08:37:10.236Z,45
2017-01-17T08:37:50.796Z,45
2017-01-17T08:38:31.291Z,45
2017-01-17T08:39:11.795Z,45
2017-01-17T08:39:52.682Z,50
2017-01-17T08:40:33.355Z,55
2017-01-17T08:41:13.940Z,55
2017-01-17T08:41:54.528Z,55
2017-01-17T08:42:35.062Z,55
2017-01-17T08:43:15.546Z,50
2017-01-17T08:43:56.042Z,55
2017-01-17T08:44:36.554Z,55
2017-01-17T08:45:17.095Z,55
2017-01-17T08:45:57.584Z,55
2017-01-17T08:46:38.093Z,50
2017-01-17T08:47:18.607Z,50
2017-01-17T08:47:59.148Z,45
2017-01-17T08:48:39.685Z,45
2017-01-17T08:49:20.183Z,45
2017-01-17T08:50:00.701Z,45
2017-01-17T08:50:41.377Z,45
2017-01-17T08:51:21.770Z,45
2017-01-17T08:52:02.278Z,45
2017-01-17T08:52:42.787Z,45
2017-01-17T08:53:23.296Z,45
2017-01-17T08:54:03.872Z,50
2017-01-17T08:54:44.391Z,55
2017-01-17T08:55:24.937Z,55
2017-01-17T08:56:05.422Z,55
2017-01-17T08:56:45.936Z,55
2017-01-17T08:57:26.444Z,55
2017-01-17T08:58:06.974Z,50
2017-01-17T08:58:49.341Z,50
2017-01-17T08:59:29.786Z,55
2017-01-17T09:00:10.297Z,60
2017-01-17T09:00:51.035Z,60
2017-01-17T09:01:31.569Z,65
2017-01-17T09:02:12.080Z,65
2017-01-17T09:02:52.582Z,60
2017-01-17T09:03:33.110Z,60
2017-01-17T09:04:13.606Z,60
2017-01-17T09:04:54.167Z,60
2017-01-17T09:05:34.621Z,55
2017-01-17T09:06:15.124Z,55
2017-01-17T09:06:55.638Z,55
2017-01-17T09:09:24.415Z,65
2017-01-17T09:10:04.808Z,60
2017-01-17T09:10:45.355Z,60
2017-01-17T09:11:25.837Z,60
2017-01-17T09:12:06.318Z,60
2017-01-17T09:12:46.809Z,65
2017-01-17T09:13:27.294Z,65
2017-01-17T09:14:07.809Z,65
2017-01-17T09:14:48.314Z,65
2017-01-17T09:15:28.824Z,65
2017-01-17T09:16:09.390Z,65
2017-01-17T09:16:49.902Z,70
2017-01-17T09:17:30.411Z,65
2017-01-17T09:18:10.984Z,60
2017-01-17T09:18:51.500Z,60
2017-01-17T09:19:32.020Z,60
2017-01-17T09:20:12.531Z,55
2017-01-17T09:20:53.046Z,55
2017-01-17T09:21:33.561Z,60
2017-01-17T09:22:14.078Z,60
2017-01-17T09:22:54.598Z,60
2017-01-17T09:23:35.124Z,60
2017-01-17T09:24:15.620Z,60
2017-01-17T09:24:56.127Z,60
2017-01-17T09:25:36.646Z,60
2017-01-17T09:26:17.164Z,60
2017-01-17T09:26:57.690Z,60
2017-01-17T09:27:38.241Z,60
2017-01-17T09:28:18.732Z,60
2017-01-17T09:28:59.261Z,60
2017-01-17T09:31:28.379Z,55
2017-01-17T09:32:08.903Z,60
2017-01-17T09:32:49.415Z,60
2017-01-17T09:33:29.927Z,60
2017-01-17T09:34:10.625Z,60
2017-01-17T09:34:51.131Z,65
2017-01-17T09:35:31.662Z,65
2017-01-17T09:36:12.145Z,65
2017-01-17T09:36:52.792Z,65
2017-01-17T09:37:33.175Z,65
2017-01-17T09:38:13.665Z,65
2017-01-17T09:38:54.451Z,65
2017-01-17T09:39:34.969Z,65
2017-01-17T09:40:15.407Z,65
2017-01-17T09:40:55.924Z,65
2017-01-17T09:41:36.433Z,65
2017-01-17T09:42:16.926Z,65
2017-01-17T09:42:57.436Z,65
2017-01-17T09:43:37.939Z,65
2017-01-17T09:44:18.622Z,65
2017-01-17T09:44:59.119Z,70
2017-01-17T09:45:39.638Z,70
2017-01-17T09:46:20.311Z,65
2017-01-17T09:47:00.729Z,65
2017-01-17T09:47:41.190Z,65
2017-01-17T09:48:21.793Z,65
2017-01-17T09:49:02.313Z,65
2017-01-17T09:49:42.814Z,70
2017-01-17T09:50:23.328Z,70
2017-01-17T09:51:03.811Z,65
2017-01-17T09:51:44.368Z,65
2017-01-17T09:52:24.877Z,70
2017-01-17T09:53:05.376Z,80
2017-01-17T09:53:45.887Z,80
2017-01-17T09:54:26.392Z,75
2017-01-17T09:55:06.911Z,80
2017-01-17T09:55:47.453Z,75
2017-01-17T09:56:28.001Z,75
2017-01-17T09:57:08.510Z,80
2017-01-17T09:57:49.000Z,90
2017-01-17T09:58:29.755Z,95
2017-01-17T09:59:10.035Z,95
2017-01-17T09:59:50.467Z,90
2017-01-17T10:00:31.016Z,80
2017-01-17T10:01:11.510Z,80
2017-01-17T10:01:51.991Z,80
2017-01-17T10:02:32.505Z,75
2017-01-17T10:03:13.011Z,70
2017-01-17T10:03:53.538Z,70
2017-01-17T10:04:34.057Z,75
2017-01-17T10:05:14.567Z,80
2017-01-17T10:05:55.064Z,80
2017-01-17T10:06:35.570Z,80
2017-01-17T10:07:16.161Z,75
2017-01-17T10:07:56.720Z,80
2017-01-17T10:08:37.227Z,80
2017-01-17T10:09:17.729Z,65
2017-01-17T10:09:58.254Z,65
2017-01-17T10:10:38.765Z,70
2017-01-17T10:11:19.294Z,80
2017-01-17T10:11:59.812Z,85
2017-01-17T10:12:40.294Z,85
2017-01-17T10:13:20.816Z,80
2017-01-17T10:14:01.318Z,85
2017-01-17T10:14:41.808Z,85
2017-01-17T10:15:22.336Z,80
2017-01-17T10:16:02.855Z,80
2017-01-17T10:16:43.371Z,80
2017-01-17T10:17:23.889Z,80
2017-01-17T10:18:04.376Z,85
2017-01-17T10:18:44.907Z,80
2017-01-17T10:19:25.535Z,75
2017-01-17T10:20:06.042Z,80
2017-01-17T10:20:46.547Z,75
2017-01-17T10:21:27.059Z,80